Erskine Lakes, New Jersey
Current Conditions -  °F | °C
As of 12:53 AM on Sunday 26 Oct 2014 (Local Time) from KCDW Reporting Station
Light Rain Light Rain  
Wind Chill: 57°   Ceiling: 7000
Heat Index: 57°   Visibility: 10mi
Dew Point: 49°   Wind: 0mph
Humidity: 74%   Direction: NA
Pressure: 29.59"   Gusts: NA
Location:  41.1036°N, 74.2801°W
Report Text: KCDW 260453Z 00000KT 10SM -RA OVC070 14/09 A2959 RMK AO2 PK WND 32026/0413 RAB13 SLP024 P0001 T01390094 402000044
Loading
Personal Weather Stations






























Interactive Weather Map
Tropical Storm Tracking
New forecast layout! Learn more

10-Day Weather Forecast

Advertisements
Track Severe Weather on mobile